Arcadia, IN

10:37 PM EDT on October 31, 2014 (GMT -0400)
KINATLAN2 | Change Station
CLOSE
Current Station
Personal Weather Station
Location: Atlanta, IN
Elevation: 866 ft
Nearby Weather Stations
Active Advisory: Freeze Warning

Elev 866 ft 40.19 °N, 86.05 °W | Updated 1 minute ago

Overcast
Overcast
34.5 °F
Feels Like 23 °F
N
20.0
Wind Variable Wind from North
Gusts 31.0 mph

Today
High -- | Low -- °F
--% Chance of Precip.
Yesterday
High -- | Low -- °F
Precip. -- in
8:12 AM 6:42 PM
First Quarter, 61% visible
Pressure 30.16 in
Visibility 10.0 miles
Clouds Overcast 2800 ft
Windchill 23 °F
Dew Point 30 °F
Humidity 85%
Rainfall 0.20 in
Snow Depth Not available.
UV 0 out of 12
Pollen .10 out of 12
Air Quality Not available.
Flu Activity Not available.
METAR KTYQ 010215Z AUTO 35014G25KT 10SM OVC028 02/M03 A3016 RMK AO2 T00171029

More Conditions Fewer Conditions

Pressure 30.16 in
Visibility 10.0 miles
Clouds Overcast 2800 ft
Windchill 23 °F
Dew Point 30 °F
Humidity 85%
Rainfall 0.20 in
Snow Depth Not available.
UV 0 out of 12
Pollen .10 out of 12
Air Quality Not available.
Flu Activity Not available.
METAR KTYQ 010215Z AUTO 35014G25KT 10SM OVC028 02/M03 A3016 RMK AO2 T00171029

More Conditions Fewer Conditions

10-Day Weather Forecast

Almanac

Astronomy

Oct. 31, 2014 Rise Set
Actual Time
Civil Twilight
Nautical Twilight
Astronomical Twilight
Moon
Length of Visible Light
Length of Day
Tomorrow will be .
, % of the Moon is Illuminated

Today's Extremes

State Highs State Lows

Community

WunderPhotos

Upload Photos

1,766,823 photos uploaded!

WunderBlogs® & News

Nearby

Air Quality

  Air Quality AQ Index Pollutant
Not available.

Snow Depth

Station Depth Elevation

Earthquake Activity

City Distance Mag. Time & Date
Minimum magnitude displayed is 2.5.

Coastal Water Temperatures

Place Temperature

Nearby Weather Stations